createdAt,value
2017-11-30T00:00:56.395Z,93.40
2017-11-30T00:03:23.903Z,93.50
2017-11-30T00:05:51.450Z,93.40
2017-11-30T00:08:18.943Z,93.30
2017-11-30T00:10:46.542Z,93.40
2017-11-30T00:13:14.061Z,93.30
2017-11-30T00:15:41.567Z,93.20
2017-11-30T00:18:09.124Z,93.10
2017-11-30T00:20:36.637Z,93.20
2017-11-30T00:23:04.179Z,93.20
2017-11-30T00:25:31.692Z,93.20
2017-11-30T00:27:59.231Z,93.00
2017-11-30T00:30:26.756Z,92.80
2017-11-30T00:32:54.303Z,93.10
2017-11-30T00:35:21.809Z,92.90
2017-11-30T00:37:49.376Z,92.90
2017-11-30T00:40:17.638Z,92.90
2017-11-30T00:42:56.909Z,92.90
2017-11-30T00:45:25.178Z,93.00
2017-11-30T00:47:52.743Z,93.00
2017-11-30T00:50:20.254Z,93.10
2017-11-30T00:52:48.565Z,93.10
2017-11-30T00:55:16.084Z,93.10
2017-11-30T00:57:43.590Z,93.20
2017-11-30T01:00:11.899Z,93.20
2017-11-30T01:02:39.425Z,93.10
2017-11-30T01:05:06.966Z,93.00
2017-11-30T01:07:34.495Z,93.10
2017-11-30T01:10:02.849Z,93.10
2017-11-30T01:12:30.362Z,93.00
2017-11-30T01:14:58.667Z,92.80
2017-11-30T01:17:26.182Z,92.80
2017-11-30T01:19:53.727Z,92.80
2017-11-30T01:22:21.259Z,92.80
2017-11-30T01:24:48.776Z,93.00
2017-11-30T01:27:17.079Z,93.10
2017-11-30T01:29:44.761Z,93.10
2017-11-30T01:32:12.651Z,93.00
2017-11-30T01:34:40.245Z,92.90
2017-11-30T01:37:07.791Z,93.00
2017-11-30T01:39:35.345Z,93.10
2017-11-30T01:42:02.860Z,93.10
2017-11-30T01:44:30.421Z,93.20
2017-11-30T01:46:57.977Z,93.10
2017-11-30T01:49:25.527Z,93.00
2017-11-30T02:17:35.997Z,93.20
2017-11-30T02:20:03.502Z,93.20
2017-11-30T02:22:31.076Z,93.20
2017-11-30T02:24:58.588Z,93.20
2017-11-30T02:27:26.092Z,93.20
2017-11-30T02:29:53.655Z,93.20
2017-11-30T02:32:21.159Z,93.20
2017-11-30T02:34:48.690Z,93.20
2017-11-30T02:37:16.187Z,93.30
2017-11-30T02:39:43.739Z,93.30
2017-11-30T02:42:11.265Z,93.40
2017-11-30T02:44:39.535Z,94.00
2017-11-30T02:47:07.076Z,93.70
2017-11-30T02:49:34.592Z,94.00
2017-11-30T02:52:02.139Z,94.30
2017-11-30T02:54:29.639Z,94.70
2017-11-30T02:56:57.200Z,95.20
2017-11-30T02:59:24.705Z,95.10
2017-11-30T03:01:52.203Z,95.10
2017-11-30T03:04:19.757Z,95.00
2017-11-30T03:06:47.267Z,95.00
2017-11-30T03:09:14.800Z,95.00
2017-11-30T03:11:42.329Z,94.90
2017-11-30T03:14:09.879Z,94.90
2017-11-30T03:16:37.394Z,94.90
2017-11-30T03:19:05.703Z,94.70
2017-11-30T03:38:37.549Z,94.60
2017-11-30T03:41:05.863Z,94.70
2017-11-30T03:43:33.378Z,94.70
2017-11-30T03:46:01.428Z,94.70
2017-11-30T03:48:28.941Z,94.80
2017-11-30T03:50:56.443Z,94.90
2017-11-30T03:53:24.762Z,95.30
2017-11-30T03:55:52.261Z,95.30
2017-11-30T03:58:19.793Z,95.20
2017-11-30T04:00:47.318Z,95.10
2017-11-30T04:03:14.862Z,95.00
2017-11-30T04:05:42.374Z,94.90
2017-11-30T04:08:09.931Z,94.80
2017-11-30T04:10:37.439Z,94.70
2017-11-30T04:13:05.699Z,94.80
2017-11-30T04:15:33.243Z,94.80
2017-11-30T04:18:00.764Z,94.70
2017-11-30T04:20:28.302Z,94.60
2017-11-30T04:22:55.806Z,94.50
2017-11-30T04:25:24.129Z,94.40
2017-11-30T04:27:51.631Z,94.40
2017-11-30T04:30:19.169Z,94.40
2017-11-30T04:32:46.737Z,94.30
2017-11-30T04:35:14.239Z,94.10
2017-11-30T04:37:41.767Z,94.10
2017-11-30T04:40:09.291Z,93.90
2017-11-30T04:42:36.820Z,93.80
2017-11-30T04:45:04.314Z,93.80
2017-11-30T04:47:31.875Z,93.70
2017-11-30T04:49:59.371Z,93.60
2017-11-30T04:52:26.915Z,93.50
2017-11-30T04:54:54.441Z,93.50
2017-11-30T04:57:26.019Z,93.50
2017-11-30T04:59:53.572Z,93.40
2017-11-30T05:02:21.091Z,93.00
2017-11-30T05:04:48.625Z,92.70
2017-11-30T05:07:16.122Z,92.60
2017-11-30T05:09:44.433Z,92.40
2017-11-30T05:12:11.944Z,92.40
2017-11-30T05:14:39.519Z,92.40
2017-11-30T05:17:07.032Z,92.60
2017-11-30T05:19:35.388Z,92.90
2017-11-30T05:22:02.891Z,92.90
2017-11-30T05:24:30.406Z,93.00
2017-11-30T05:26:57.958Z,93.20
2017-11-30T05:29:25.456Z,93.30
2017-11-30T05:31:53.002Z,93.50
2017-11-30T05:34:20.508Z,93.60
2017-11-30T05:36:48.058Z,93.50
2017-11-30T05:39:15.564Z,93.40
2017-11-30T05:41:43.105Z,93.20
2017-11-30T05:44:10.634Z,93.30
2017-11-30T05:46:38.984Z,93.60
2017-11-30T05:49:06.487Z,93.60
2017-11-30T05:51:33.985Z,93.70
2017-11-30T05:54:01.509Z,93.80
2017-11-30T05:56:29.006Z,93.80
2017-11-30T05:58:57.342Z,93.80
2017-11-30T06:01:24.863Z,93.80
2017-11-30T06:03:53.164Z,93.80
2017-11-30T06:06:21.452Z,93.80
2017-11-30T06:08:49.874Z,93.90
2017-11-30T06:11:20.026Z,93.90
2017-11-30T06:13:47.588Z,93.90
2017-11-30T06:16:15.102Z,94.00
2017-11-30T06:18:42.607Z,94.00
2017-11-30T06:21:11.004Z,94.30
2017-11-30T06:23:38.567Z,94.60
2017-11-30T06:26:06.870Z,94.50
2017-11-30T06:28:34.380Z,94.50
2017-11-30T06:31:01.951Z,94.50
2017-11-30T06:33:29.461Z,94.50
2017-11-30T06:35:57.780Z,94.50
2017-11-30T06:38:25.290Z,94.50
2017-11-30T06:40:52.778Z,94.60
2017-11-30T06:43:20.319Z,94.60
2017-11-30T06:45:47.821Z,94.60
2017-11-30T06:48:15.359Z,94.60
2017-11-30T06:50:42.854Z,94.60
2017-11-30T06:53:10.399Z,94.70
2017-11-30T06:55:37.907Z,94.70
2017-11-30T06:58:06.220Z,94.80
2017-11-30T07:00:34.483Z,94.70
2017-11-30T07:03:02.101Z,94.70
2017-11-30T07:05:29.617Z,94.70
2017-11-30T07:07:57.113Z,94.70
2017-11-30T07:10:25.415Z,94.90
2017-11-30T07:12:53.685Z,94.80
2017-11-30T07:15:21.231Z,94.70
2017-11-30T07:17:48.736Z,94.70
2017-11-30T07:20:17.044Z,95.10
2017-11-30T07:22:45.318Z,94.70
2017-11-30T07:25:13.622Z,94.70
2017-11-30T07:27:41.134Z,94.70
2017-11-30T07:30:08.679Z,94.70
2017-11-30T07:32:36.197Z,94.60
2017-11-30T07:35:03.707Z,94.60
2017-11-30T07:37:31.258Z,94.60
2017-11-30T07:39:58.773Z,94.70
2017-11-30T07:42:26.309Z,94.50
2017-11-30T07:44:53.806Z,94.70
2017-11-30T07:47:21.368Z,94.70
2017-11-30T07:49:49.627Z,94.70
2017-11-30T07:52:17.198Z,94.70
2017-11-30T07:54:44.706Z,94.60
2017-11-30T07:57:12.240Z,94.70
2017-11-30T07:59:39.774Z,94.50
2017-11-30T08:02:07.286Z,94.40
2017-11-30T08:04:34.858Z,94.40
2017-11-30T08:07:02.346Z,94.40
2017-11-30T08:09:30.650Z,94.30
2017-11-30T08:11:58.916Z,94.40
2017-11-30T08:14:27.224Z,94.70
2017-11-30T08:16:55.500Z,94.30
2017-11-30T08:19:23.052Z,94.30
2017-11-30T08:21:50.555Z,94.30
2017-11-30T08:24:18.841Z,94.30
2017-11-30T08:26:47.177Z,94.20
2017-11-30T08:29:14.678Z,94.20
2017-11-30T08:31:42.259Z,94.20
2017-11-30T08:34:10.530Z,94.30
2017-11-30T08:36:38.071Z,94.20
2017-11-30T08:39:05.591Z,94.30
2017-11-30T08:41:33.130Z,94.30
2017-11-30T08:44:00.634Z,94.70
2017-11-30T08:46:28.180Z,94.50
2017-11-30T08:48:55.716Z,94.50
2017-11-30T08:51:23.269Z,94.60
2017-11-30T08:53:51.753Z,94.70
2017-11-30T08:56:19.307Z,94.70
2017-11-30T08:58:46.803Z,94.70
2017-11-30T09:01:14.301Z,94.70
2017-11-30T09:03:41.847Z,94.80
2017-11-30T09:06:09.356Z,94.80
2017-11-30T09:08:36.899Z,94.70
2017-11-30T09:11:05.174Z,94.80
2017-11-30T09:13:32.717Z,94.80
2017-11-30T09:16:00.230Z,94.80
2017-11-30T09:18:28.594Z,94.80
2017-11-30T09:20:56.096Z,94.80
2017-11-30T09:23:23.606Z,94.70
2017-11-30T09:25:51.163Z,94.70
2017-11-30T09:28:18.666Z,94.70
2017-11-30T09:30:46.229Z,94.60
2017-11-30T09:33:13.729Z,94.60
2017-11-30T09:35:42.070Z,94.70
2017-11-30T09:38:09.567Z,94.70
2017-11-30T09:40:37.164Z,94.70
2017-11-30T09:43:04.676Z,94.60
2017-11-30T09:45:32.255Z,94.50
2017-11-30T09:47:59.759Z,94.50
2017-11-30T09:50:27.256Z,94.80
2017-11-30T09:52:54.814Z,94.40
2017-11-30T09:55:22.318Z,93.90
2017-11-30T09:57:50.622Z,93.70
2017-11-30T10:00:18.122Z,93.70
2017-11-30T10:02:45.693Z,93.60
2017-11-30T10:05:13.221Z,93.50
2017-11-30T10:07:41.497Z,93.00
2017-11-30T10:10:09.813Z,92.70
2017-11-30T10:12:37.323Z,92.70
2017-11-30T10:15:04.855Z,93.00
2017-11-30T10:17:32.387Z,92.80
2017-11-30T10:19:59.943Z,92.70
2017-11-30T10:22:27.515Z,92.80
2017-11-30T10:24:55.054Z,92.90
2017-11-30T10:27:22.591Z,93.00
2017-11-30T10:29:50.142Z,93.00
2017-11-30T10:32:17.648Z,92.90
2017-11-30T10:34:45.927Z,93.10
2017-11-30T10:37:14.233Z,93.20
2017-11-30T10:39:42.507Z,93.60
2017-11-30T10:42:10.829Z,93.60
2017-11-30T10:44:38.347Z,93.50
2017-11-30T10:47:05.939Z,93.00
2017-11-30T10:49:34.222Z,92.00
2017-11-30T10:52:02.538Z,91.60
2017-11-30T10:54:30.059Z,91.50
2017-11-30T10:56:57.587Z,91.80
2017-11-30T10:59:25.086Z,91.10
2017-11-30T11:01:53.328Z,90.80
2017-11-30T11:04:20.845Z,90.10
2017-11-30T11:06:49.242Z,90.20
2017-11-30T11:09:16.756Z,90.20
2017-11-30T11:11:44.261Z,90.20
2017-11-30T11:14:11.829Z,90.00
2017-11-30T11:16:39.342Z,90.30
2017-11-30T11:19:06.892Z,90.80
2017-11-30T11:21:35.270Z,91.00
2017-11-30T11:24:02.831Z,91.00
2017-11-30T11:26:30.343Z,90.70
2017-11-30T11:28:57.882Z,90.90
2017-11-30T11:31:25.430Z,91.00
2017-11-30T11:33:53.743Z,90.90
2017-11-30T11:36:21.246Z,90.90
2017-11-30T11:38:48.800Z,90.70
2017-11-30T11:41:16.391Z,91.00
2017-11-30T11:43:43.895Z,90.60
2017-11-30T11:46:11.445Z,90.50
2017-11-30T11:48:38.946Z,90.10
2017-11-30T11:51:06.487Z,89.30
2017-11-30T11:53:33.995Z,90.00
2017-11-30T11:56:02.304Z,88.20
2017-11-30T11:58:29.815Z,88.10
2017-11-30T12:00:57.370Z,87.20
2017-11-30T12:03:24.887Z,87.10
2017-11-30T12:05:52.369Z,86.30
2017-11-30T12:08:20.662Z,86.30
2017-11-30T12:10:48.171Z,86.30
2017-11-30T12:13:15.698Z,86.60
2017-11-30T12:15:43.961Z,87.20
2017-11-30T12:18:11.509Z,86.50
2017-11-30T12:20:39.002Z,87.20
2017-11-30T12:23:06.561Z,86.80
2017-11-30T12:25:34.050Z,87.70
2017-11-30T12:28:01.540Z,88.00
2017-11-30T12:30:29.077Z,87.10
2017-11-30T12:32:56.569Z,85.80
2017-11-30T12:35:24.097Z,86.80
2017-11-30T12:37:51.600Z,86.50
2017-11-30T12:40:19.134Z,86.60
2017-11-30T12:42:46.623Z,86.90
2017-11-30T12:45:14.141Z,86.00
2017-11-30T12:47:42.407Z,87.20
2017-11-30T12:50:09.926Z,87.10
2017-11-30T12:52:37.419Z,86.30
2017-11-30T12:55:04.986Z,86.10
2017-11-30T12:57:32.474Z,85.50
2017-11-30T12:59:59.964Z,84.50
2017-11-30T13:02:27.500Z,85.60
2017-11-30T13:04:54.996Z,86.10
2017-11-30T13:07:22.521Z,86.20
2017-11-30T13:09:50.020Z,86.30
2017-11-30T13:12:17.570Z,85.70
2017-11-30T13:14:45.067Z,84.20
2017-11-30T13:17:12.596Z,83.30
2017-11-30T13:19:40.859Z,84.60
2017-11-30T13:22:08.404Z,84.60
2017-11-30T13:24:35.898Z,83.70
2017-11-30T13:27:03.424Z,83.90
2017-11-30T13:29:30.914Z,84.30
2017-11-30T13:31:58.412Z,83.40
2017-11-30T13:34:25.940Z,85.00
2017-11-30T13:36:53.432Z,84.60
2017-11-30T13:39:20.981Z,84.70
2017-11-30T13:41:48.468Z,84.10
2017-11-30T13:44:16.040Z,84.30
2017-11-30T13:46:43.530Z,84.20
2017-11-30T13:49:11.025Z,84.00
2017-11-30T13:51:38.550Z,83.30
2017-11-30T13:54:06.054Z,83.50
2017-11-30T13:56:33.613Z,83.50
2017-11-30T13:59:01.148Z,83.00
2017-11-30T14:01:28.687Z,83.80
2017-11-30T14:03:56.179Z,83.10
2017-11-30T14:06:24.448Z,84.30
2017-11-30T14:08:52.385Z,84.30
2017-11-30T14:11:19.901Z,85.30
2017-11-30T14:13:48.228Z,85.70
2017-11-30T14:16:15.725Z,85.70
2017-11-30T14:18:43.371Z,85.90
2017-11-30T14:21:10.852Z,87.10
2017-11-30T14:23:38.394Z,88.30
2017-11-30T14:26:06.656Z,90.20
2017-11-30T14:28:34.140Z,90.20
2017-11-30T14:31:01.663Z,90.70
2017-11-30T14:33:29.161Z,90.80
2017-11-30T14:35:56.692Z,90.90
2017-11-30T14:38:24.176Z,91.00
2017-11-30T14:40:51.704Z,91.20
2017-11-30T14:43:20.006Z,91.60
2017-11-30T14:45:48.292Z,91.70
2017-11-30T14:48:16.599Z,91.80
2017-11-30T14:50:44.120Z,91.80
2017-11-30T14:53:11.669Z,91.90
2017-11-30T14:55:39.164Z,91.90
2017-11-30T14:58:06.692Z,91.80
2017-11-30T15:00:34.362Z,91.70
2017-11-30T15:03:01.918Z,91.90
2017-11-30T15:05:30.177Z,92.10
2017-11-30T15:07:57.674Z,92.10
2017-11-30T15:10:25.216Z,92.20
2017-11-30T15:12:52.865Z,92.50
2017-11-30T15:15:20.404Z,92.50
2017-11-30T15:17:47.904Z,92.60
2017-11-30T15:20:16.257Z,92.70
2017-11-30T15:22:43.786Z,92.70
2017-11-30T15:25:11.281Z,92.70
2017-11-30T15:27:38.875Z,92.70
2017-11-30T15:30:07.153Z,92.80
2017-11-30T15:32:36.101Z,93.10
2017-11-30T15:35:03.611Z,92.80
2017-11-30T15:37:31.135Z,92.90
2017-11-30T15:39:58.650Z,93.00
2017-11-30T15:42:26.276Z,93.10
2017-11-30T15:44:53.773Z,93.00
2017-11-30T15:47:21.272Z,92.90
2017-11-30T15:49:48.800Z,92.90
2017-11-30T15:52:16.298Z,92.90
2017-11-30T15:54:43.867Z,92.90
2017-11-30T15:57:11.364Z,93.00
2017-11-30T15:59:38.906Z,93.00
2017-11-30T16:02:06.413Z,93.00
2017-11-30T16:04:33.916Z,93.00
2017-11-30T16:07:01.445Z,93.00
2017-11-30T16:09:28.943Z,92.90
2017-11-30T16:11:57.240Z,92.90
2017-11-30T16:14:25.505Z,92.80
2017-11-30T16:16:53.855Z,92.60
2017-11-30T16:19:21.327Z,92.60
2017-11-30T16:21:48.868Z,92.70
2017-11-30T16:24:17.126Z,92.30
2017-11-30T16:26:44.636Z,92.40
2017-11-30T16:29:12.175Z,92.40
2017-11-30T16:31:39.717Z,92.30
2017-11-30T16:34:07.244Z,92.20
2017-11-30T16:36:34.813Z,92.30
2017-11-30T16:39:02.500Z,92.50
2017-11-30T16:41:29.988Z,92.50
2017-11-30T16:43:57.520Z,92.60
2017-11-30T16:46:25.836Z,92.50
2017-11-30T16:48:53.332Z,92.50
2017-11-30T16:51:20.873Z,92.50
2017-11-30T16:53:48.376Z,92.60
2017-11-30T16:56:21.604Z,92.70
2017-11-30T16:58:49.128Z,92.90
2017-11-30T17:01:17.005Z,93.10
2017-11-30T17:03:44.675Z,93.10
2017-11-30T17:06:12.181Z,93.20
2017-11-30T17:08:39.923Z,93.20
2017-11-30T17:11:08.978Z,93.20
2017-11-30T17:13:37.937Z,93.30
2017-11-30T17:16:05.605Z,93.30
2017-11-30T17:18:34.690Z,93.30
2017-11-30T17:21:02.184Z,93.30
2017-11-30T17:23:29.720Z,93.40
2017-11-30T17:25:57.214Z,93.50
2017-11-30T17:28:25.992Z,93.60
2017-11-30T17:30:53.495Z,93.60
2017-11-30T17:33:21.001Z,93.70
2017-11-30T17:35:48.565Z,93.70
2017-11-30T17:38:16.054Z,93.50
2017-11-30T17:40:43.598Z,93.40
2017-11-30T17:43:11.120Z,93.40
2017-11-30T17:45:38.676Z,93.30
2017-11-30T17:48:06.188Z,92.90
2017-11-30T17:50:34.611Z,92.90
2017-11-30T17:53:02.126Z,92.90
2017-11-30T17:55:29.690Z,93.00
2017-11-30T17:57:57.195Z,93.00
2017-11-30T18:00:25.468Z,93.10
2017-11-30T18:02:53.054Z,93.10
2017-11-30T18:05:21.309Z,93.10
2017-11-30T18:07:48.853Z,93.10
2017-11-30T18:10:16.395Z,93.10
2017-11-30T18:12:44.065Z,92.80
2017-11-30T18:15:12.352Z,92.30
2017-11-30T18:17:39.892Z,92.30
2017-11-30T18:20:07.396Z,92.30
2017-11-30T18:22:35.744Z,92.40
2017-11-30T18:25:03.262Z,92.40
2017-11-30T18:27:31.597Z,92.70
2017-11-30T18:29:59.868Z,92.60
2017-11-30T18:32:27.396Z,92.60
2017-11-30T18:34:54.932Z,92.10
2017-11-30T18:37:22.446Z,92.30
2017-11-30T18:39:50.043Z,92.20
2017-11-30T18:42:18.299Z,92.20
2017-11-30T18:44:45.929Z,92.20
2017-11-30T18:47:13.492Z,92.30
2017-11-30T18:49:41.014Z,92.20
2017-11-30T18:52:08.658Z,92.30
2017-11-30T18:54:36.147Z,92.30
2017-11-30T18:57:03.672Z,92.30
2017-11-30T18:59:31.246Z,92.40
2017-11-30T19:01:58.787Z,92.20
2017-11-30T19:04:26.309Z,92.20
2017-11-30T19:06:54.433Z,92.20
2017-11-30T19:09:22.040Z,92.20
2017-11-30T19:11:49.557Z,92.20
2017-11-30T19:14:17.161Z,92.20
2017-11-30T19:16:44.653Z,92.40
2017-11-30T19:19:12.217Z,92.20
2017-11-30T19:21:40.488Z,92.30
2017-11-30T19:24:08.049Z,92.30
2017-11-30T19:26:35.566Z,92.30
2017-11-30T19:29:03.155Z,92.20
2017-11-30T19:31:30.663Z,92.30
2017-11-30T19:33:59.137Z,92.40
2017-11-30T19:36:28.773Z,92.40
2017-11-30T19:38:56.310Z,92.20
2017-11-30T19:41:23.873Z,91.90
2017-11-30T19:43:51.485Z,91.60
2017-11-30T19:46:19.469Z,91.50
2017-11-30T19:48:47.012Z,90.40
2017-11-30T19:51:14.557Z,90.70
2017-11-30T19:53:42.950Z,91.00
2017-11-30T19:56:10.500Z,91.00
2017-11-30T19:58:37.996Z,91.10
2017-11-30T20:01:06.383Z,90.50
2017-11-30T20:03:34.716Z,90.50
2017-11-30T20:06:02.220Z,90.50
2017-11-30T20:08:29.769Z,90.60
2017-11-30T20:10:57.258Z,90.70
2017-11-30T20:13:24.798Z,90.70
2017-11-30T20:15:52.294Z,90.80
2017-11-30T20:18:19.829Z,90.70
2017-11-30T20:20:47.391Z,90.80
2017-11-30T20:23:14.968Z,90.90
2017-11-30T20:25:42.480Z,91.00
2017-11-30T20:28:10.185Z,91.00
2017-11-30T20:30:38.448Z,91.20
2017-11-30T20:33:05.945Z,91.20
2017-11-30T20:35:33.478Z,91.20
2017-11-30T20:38:01.709Z,91.20
2017-11-30T20:40:30.020Z,91.50
2017-11-30T20:42:57.534Z,91.50
2017-11-30T20:45:25.117Z,91.50
2017-11-30T20:47:52.616Z,91.70
2017-11-30T20:50:20.168Z,91.70
2017-11-30T20:52:47.750Z,91.60
2017-11-30T20:55:15.246Z,91.60
2017-11-30T20:57:43.686Z,91.70
2017-11-30T21:00:11.241Z,91.70
2017-11-30T21:02:38.866Z,91.70
2017-11-30T21:05:06.409Z,91.70
2017-11-30T21:07:34.036Z,91.70
2017-11-30T21:10:01.576Z,91.70
2017-11-30T21:12:29.081Z,91.90
2017-11-30T21:14:57.411Z,92.10
2017-11-30T21:17:24.904Z,92.10
2017-11-30T21:19:52.445Z,92.20
2017-11-30T21:22:19.939Z,92.20
2017-11-30T21:24:47.479Z,92.30
2017-11-30T21:27:15.738Z,92.30
2017-11-30T21:29:43.337Z,92.30
2017-11-30T21:32:10.848Z,92.30
2017-11-30T21:34:38.344Z,92.30
2017-11-30T21:37:06.649Z,92.30
2017-11-30T21:39:34.152Z,92.30
2017-11-30T21:42:01.692Z,92.40
2017-11-30T21:44:29.208Z,92.50
2017-11-30T21:46:56.733Z,92.50
2017-11-30T21:49:24.219Z,92.40
2017-11-30T21:51:51.776Z,92.40
2017-11-30T21:54:20.068Z,92.50
2017-11-30T21:56:47.603Z,92.50
2017-11-30T21:59:15.116Z,92.50
2017-11-30T22:01:42.704Z,92.50
2017-11-30T22:04:10.253Z,92.40
2017-11-30T22:06:38.509Z,92.60
2017-11-30T22:09:06.041Z,92.60
2017-11-30T22:11:33.546Z,92.60
2017-11-30T22:14:01.088Z,92.70
2017-11-30T22:16:28.593Z,92.70
2017-11-30T22:18:56.125Z,92.70
2017-11-30T22:21:23.625Z,92.70
2017-11-30T22:23:51.200Z,92.80
2017-11-30T22:26:18.703Z,92.90
2017-11-30T22:28:46.290Z,93.00
2017-11-30T22:31:13.788Z,93.20
2017-11-30T22:33:41.272Z,93.30
2017-11-30T22:36:08.796Z,93.30
2017-11-30T22:38:37.056Z,93.50
2017-11-30T22:41:04.605Z,93.50
2017-11-30T22:43:32.112Z,93.50
2017-11-30T22:45:59.638Z,93.60
2017-11-30T22:48:27.157Z,94.00
2017-11-30T22:50:54.696Z,93.70
2017-11-30T22:53:22.223Z,93.70
2017-11-30T22:55:49.772Z,93.80
2017-11-30T22:58:17.428Z,93.70
2017-11-30T23:00:44.920Z,93.70
2017-11-30T23:03:13.208Z,93.80
2017-11-30T23:05:41.469Z,94.00
2017-11-30T23:08:09.000Z,93.70
2017-11-30T23:10:36.497Z,93.40
2017-11-30T23:13:04.060Z,93.30
2017-11-30T23:15:31.572Z,93.20
2017-11-30T23:17:59.104Z,93.20
2017-11-30T23:20:26.605Z,93.20
2017-11-30T23:22:54.133Z,93.30
2017-11-30T23:25:21.650Z,93.20
2017-11-30T23:27:49.204Z,93.10
2017-11-30T23:30:16.756Z,93.00
2017-11-30T23:32:44.337Z,93.00
2017-11-30T23:35:11.860Z,92.90
2017-11-30T23:37:40.115Z,92.80
2017-11-30T23:40:07.645Z,92.80
2017-11-30T23:42:35.147Z,92.70
2017-11-30T23:45:02.684Z,92.70
2017-11-30T23:47:30.193Z,92.80
2017-11-30T23:49:57.731Z,92.80
2017-11-30T23:52:25.229Z,92.90
2017-11-30T23:54:52.775Z,93.00
2017-11-30T23:57:20.300Z,93.00
2017-11-30T23:59:47.860Z,93.10
